Flight Track Log - Related Links

Times and Time Zones

All times are in EDT time to prevent confusion due to time zone crossing. See the EJA396 flight status page for this flight to view local times or setup timezone preferences in your user account.

Time Position Orientation Groundspeed Altitude Reporting Facility
EDT Latitude Longitude Course Direction KTS MPH feet Rate Location/Type
Wed 01:56:27 PM 46.8817 -96.6567 83° East 245 282 4,800  Level Minneapolis Center
Wed 01:57:29 PM 46.8717 -96.5514 98° East 248 285 7,400 2,710 Climbing Minneapolis Center
Wed 01:58:31 PM 46.8550 -96.4353 102° East 275 316 10,400 3,290 Climbing Minneapolis Center
Wed 01:59:33 PM 46.8375 -96.3003 101° East 322 371 14,200 4,016 Climbing Minneapolis Center
Wed 02:00:00 PM 46.6328 -96.2793 119° Southeast  Level Estimated
Wed 02:00:35 PM 46.8092 -96.1817 109° East 304 350 18,700  Level Minneapolis Center
Wed 02:01:00 PM 46.6447 -96.1445 83° East  Level FlightAware Approximate
Wed 02:01:37 PM 46.7708 -96.0894 121° Southeast 291 335 22,000  Level Minneapolis Center
Wed 02:02:39 PM 46.7211 -95.9656 120° Southeast 353 406 23,000 484 Climbing Minneapolis Center
Wed 02:03:41 PM 46.6500 -95.7956 121° Southeast 407 468 23,000  Level Minneapolis Center
Wed 02:04:42 PM 46.5939 -95.6558 120° Southeast 405 466 23,000 -49 Level Minneapolis Center
Wed 02:05:44 PM 46.5364 -95.5172 121° Southeast 403 464 22,900 -774 Descending Minneapolis Center
Wed 02:06:46 PM 46.4769 -95.3761 121° Southeast 380 437 21,400 -919 Descending Minneapolis Center
Wed 02:07:48 PM 46.4242 -95.2517 122° Southeast 368 423 21,000 -194 Descending Minneapolis Center
Wed 02:08:50 PM 46.3747 -95.1311 121° Southeast 352 405 21,000  Level Minneapolis Center
Wed 02:09:52 PM 46.3125 -95.0092 126° Southeast 370 426 21,000  Level Minneapolis Center
Wed 02:10:54 PM 46.2492 -94.8883 127° Southeast 375 432 21,000  Level Minneapolis Center
Wed 02:12:58 PM 46.1053 -94.6231 118° Southeast 390 449 21,000  Level Minneapolis Center
Wed 02:14:00 PM 46.0392 -94.4989 127° Southeast 392 451 21,000  Level Minneapolis Center
Wed 02:15:02 PM 45.9714 -94.3739 128° Southeast 394 453 21,000  Level Minneapolis Center
Wed 02:16:04 PM 45.9031 -94.2481 128° Southeast 396 456 21,000 -484 Level Minneapolis Center
Wed 02:17:06 PM 45.8342 -94.1217 128° Southeast 399 459 20,000 -1,680 Descending Minneapolis Center
Wed 02:18:09 PM 45.7533 -93.9739 128° Southeast 399 459 17,500 -2,226 Descending Minneapolis Center
Wed 02:19:10 PM 45.6858 -93.8528 129° Southeast 377 434 15,400 -1,951 Descending Minneapolis Center
Wed 02:20:12 PM 45.6242 -93.7406 128° Southeast 364 419 13,500 -1,839 Descending Minneapolis Center
Wed 02:21:14 PM 45.5631 -93.6308 128° Southeast 356 410 11,600 -1,258 Descending Minneapolis Center
Wed 02:22:16 PM 45.4869 -93.5581 146° Southeast 298 343 10,900 -1,065 Descending Minneapolis Center
Wed 02:23:18 PM 45.4139 -93.5383 169° South 274 315 9,400 -1,548 Descending Minneapolis Center
Wed 02:24:20 PM 45.3350 -93.5189 170° South 270 311 7,700 -1,161 Descending Minneapolis Center
Wed 02:25:22 PM 45.2664 -93.5064 173° South 255 293 7,000 -390 Descending Minneapolis Center
Wed 02:26:23 PM 45.1947 -93.4928 172° South 255 293 6,900 -780 Descending Minneapolis Center
Wed 02:27:25 PM 45.1217 -93.4814 174° South 248 285 5,400 -1,403 Descending Minneapolis Center
Wed 02:28:27 PM 45.0553 -93.4736 175° South 243 280 4,000 -677 Descending Minneapolis Center
Wed 02:29:29 PM 45.0214 -93.4175 131° Southeast 174 200 4,000 -484 Level Minneapolis Center
Wed 02:30:31 PM 44.9950 -93.3750 131° Southeast 157 181 3,000 -484 Descending Minneapolis Center
Wed 02:31:33 PM 44.9575 -93.3458 151° Southeast 156 180 3,000 -387 Level Minneapolis Center
Wed 02:32:35 PM 44.9286 -93.3014 133° Southeast 140 161 2,200 -677 Descending Minneapolis Center
Wed 02:33:37 PM 44.9103 -93.2611 123° Southeast 124 143 1,600 -581 Descending Minneapolis Center
Wed 02:35:00 PM 44.8820 -93.2218 160° South  Level Estimated
Wed 02:42:00 PM 44.8820 -93.2218 160° South  Level Estimated

Login

Don't have an account? Register now (free) for customized features, flight alerts, and more!